Terminal Aerodrome Forecast
Issued by NWS Brownsville, TX

Home | Current Version | Previous Version | Text Only | Print | Product List | Glossary On
Versions: 1 2 3 4 5 6 7 8 9 10 11 12 13 14 15 16 17 18 19 20 21 22 23
406
FTUS44 KBRO 312331
TAFBRO
TAF
KBRO 312331Z 0100/0124 16015KT P6SM FEW030 BKN045
     FM010200 13007KT P6SM VCSH BKN050
      TEMPO 0107/0111 5SM -TSRA BKN025CB
     FM011400 14012KT P6SM SCT025 PROB30 0115/0118 5SM -TSRA
      BKN020CB
     FM011800 15015G22KT P6SM BKN050=

USA.gov is the U.S. government's official web portal to all federal, state and local government web resources and services.